createdAt,value
2023-06-17T00:01:32.211Z,14.49
2023-06-17T00:03:59.925Z,14.44
2023-06-17T00:06:28.893Z,14.57
2023-06-17T00:08:56.689Z,14.65
2023-06-17T00:11:24.499Z,14.67
2023-06-17T00:13:53.207Z,14.68
2023-06-17T00:16:22.126Z,14.63
2023-06-17T00:18:52.816Z,14.69
2023-06-17T00:21:20.517Z,14.60
2023-06-17T00:23:49.445Z,14.55
2023-06-17T00:26:17.024Z,14.47
2023-06-17T00:28:45.035Z,14.64
2023-06-17T00:31:12.985Z,14.52
2023-06-17T00:33:40.491Z,14.38
2023-06-17T00:36:08.746Z,14.32
2023-06-17T00:38:36.305Z,14.30
2023-06-17T00:41:05.361Z,14.40
2023-06-17T00:43:33.029Z,14.39
2023-06-17T00:46:00.780Z,14.47
2023-06-17T00:48:28.464Z,14.32
2023-06-17T00:51:02.715Z,14.19
2023-06-17T00:53:30.460Z,14.01
2023-06-17T00:55:59.180Z,14.01
2023-06-17T00:58:28.437Z,14.04
2023-06-17T01:00:56.367Z,14.04
2023-06-17T01:03:25.881Z,14.03
2023-06-17T01:05:57.337Z,14.03
2023-06-17T01:08:29.938Z,13.95
2023-06-17T01:11:01.013Z,13.94
2023-06-17T01:13:32.650Z,14.08
2023-06-17T01:16:02.000Z,14.20
2023-06-17T01:18:30.871Z,14.11
2023-06-17T01:21:00.050Z,14.20
2023-06-17T01:23:33.010Z,14.21
2023-06-17T01:26:02.626Z,14.19
2023-06-17T01:28:31.184Z,14.13
2023-06-17T01:30:59.792Z,14.21
2023-06-17T01:33:27.920Z,14.12
2023-06-17T01:36:00.963Z,14.17
2023-06-17T01:38:32.862Z,14.22
2023-06-17T01:41:06.047Z,14.24
2023-06-17T01:43:36.483Z,14.27
2023-06-17T01:46:05.232Z,14.40
2023-06-17T01:48:32.989Z,14.49
2023-06-17T01:51:00.564Z,14.40
2023-06-17T01:53:29.205Z,14.44
2023-06-17T01:55:56.784Z,14.33
2023-06-17T01:58:25.812Z,14.21
2023-06-17T02:00:53.676Z,14.18
2023-06-17T02:03:21.567Z,14.23
2023-06-17T02:05:51.163Z,14.06
2023-06-17T02:08:18.798Z,14.02
2023-06-17T02:10:46.583Z,14.01
2023-06-17T02:13:14.189Z,14.03
2023-06-17T02:15:43.986Z,14.01
2023-06-17T02:18:15.308Z,13.92
2023-06-17T02:20:45.655Z,14.04
2023-06-17T02:23:13.442Z,14.07
2023-06-17T02:25:41.231Z,13.90
2023-06-17T02:28:09.498Z,13.83
2023-06-17T02:30:37.186Z,13.91
2023-06-17T02:33:07.243Z,13.96
2023-06-17T02:35:34.893Z,14.06
2023-06-17T02:38:02.413Z,14.20
2023-06-17T02:40:30.650Z,14.14
2023-06-17T02:42:58.204Z,13.96
2023-06-17T02:45:25.752Z,14.16
2023-06-17T02:47:53.350Z,14.08
2023-06-17T02:50:24.474Z,13.83
2023-06-17T02:52:56.607Z,13.81
2023-06-17T02:55:26.482Z,13.69
2023-06-17T02:57:54.297Z,13.85
2023-06-17T03:00:22.786Z,13.81
2023-06-17T03:02:51.359Z,13.66
2023-06-17T03:05:19.085Z,13.69
2023-06-17T03:07:49.003Z,13.69
2023-06-17T03:10:19.346Z,13.75
2023-06-17T03:12:53.208Z,13.73
2023-06-17T03:15:20.860Z,13.64
2023-06-17T03:17:48.500Z,13.58
2023-06-17T03:20:16.377Z,13.63
2023-06-17T03:22:44.988Z,13.51
2023-06-17T03:25:15.157Z,13.51
2023-06-17T03:27:42.731Z,13.53
2023-06-17T03:30:11.218Z,13.52
2023-06-17T03:32:39.114Z,13.59
2023-06-17T03:35:07.848Z,13.57
2023-06-17T03:37:35.426Z,13.60
2023-06-17T03:40:03.786Z,13.64
2023-06-17T03:42:37.718Z,13.58
2023-06-17T03:45:06.219Z,13.57
2023-06-17T03:47:33.926Z,13.54
2023-06-17T03:50:01.588Z,13.62
2023-06-17T03:52:30.675Z,13.69
2023-06-17T03:54:58.288Z,13.69
2023-06-17T03:57:26.829Z,13.78
2023-06-17T03:59:55.775Z,13.83
2023-06-17T04:02:23.673Z,13.86
2023-06-17T04:04:53.600Z,13.84
2023-06-17T04:07:21.672Z,13.96
2023-06-17T04:10:05.365Z,13.93
2023-06-17T04:12:34.609Z,13.97
2023-06-17T04:15:04.168Z,14.08
2023-06-17T04:17:31.976Z,14.07
2023-06-17T04:20:06.356Z,14.11
2023-06-17T04:22:34.021Z,14.03
2023-06-17T04:25:01.560Z,13.98
2023-06-17T04:27:29.328Z,14.02
2023-06-17T04:29:57.339Z,14.07
2023-06-17T04:32:27.699Z,14.13
2023-06-17T04:34:55.519Z,14.18
2023-06-17T04:37:23.286Z,14.21
2023-06-17T04:39:54.072Z,14.26
2023-06-17T04:42:21.668Z,14.37
2023-06-17T04:44:50.405Z,14.29
2023-06-17T04:47:18.056Z,14.14
2023-06-17T04:49:48.401Z,14.23
2023-06-17T04:52:20.347Z,14.26
2023-06-17T04:54:48.722Z,14.41
2023-06-17T04:57:17.421Z,14.40
2023-06-17T04:59:45.508Z,14.42
2023-06-17T05:02:14.493Z,14.36
2023-06-17T05:04:42.587Z,14.42
2023-06-17T05:07:11.512Z,14.61
2023-06-17T05:09:41.164Z,14.61
2023-06-17T05:12:11.157Z,14.49
2023-06-17T05:14:38.880Z,14.49
2023-06-17T05:17:07.370Z,14.65
2023-06-17T05:19:35.200Z,14.67
2023-06-17T05:22:02.870Z,14.68
2023-06-17T05:24:33.177Z,14.66
2023-06-17T05:27:01.040Z,14.82
2023-06-17T05:29:29.437Z,14.88
2023-06-17T05:31:57.122Z,14.86
2023-06-17T05:34:24.652Z,14.94
2023-06-17T05:36:52.411Z,15.01
2023-06-17T05:39:20.049Z,15.06
2023-06-17T05:41:48.950Z,15.09
2023-06-17T05:44:19.196Z,15.20
2023-06-17T05:46:48.560Z,15.31
2023-06-17T05:49:16.860Z,15.30
2023-06-17T05:51:44.642Z,15.19
2023-06-17T05:54:12.261Z,15.20
2023-06-17T05:56:40.995Z,15.19
2023-06-17T05:59:09.997Z,15.31
2023-06-17T06:01:40.756Z,15.46
2023-06-17T06:04:08.549Z,15.57
2023-06-17T06:06:36.169Z,15.67
2023-06-17T06:09:03.843Z,15.71
2023-06-17T06:11:31.384Z,15.80
2023-06-17T06:13:59.844Z,15.83
2023-06-17T06:16:28.801Z,15.94
2023-06-17T06:18:56.350Z,16.05
2023-06-17T06:21:23.910Z,16.16
2023-06-17T06:23:52.188Z,16.33
2023-06-17T06:26:19.897Z,16.34
2023-06-17T06:28:49.057Z,16.44
2023-06-17T06:31:16.756Z,16.51
2023-06-17T06:33:45.642Z,16.65
2023-06-17T06:36:13.321Z,16.75
2023-06-17T06:38:40.879Z,16.81
2023-06-17T06:41:08.523Z,16.82
2023-06-17T06:43:41.634Z,16.76
2023-06-17T06:46:16.602Z,16.87
2023-06-17T06:48:45.983Z,16.80
2023-06-17T06:51:14.250Z,16.74
2023-06-17T06:53:42.050Z,16.84
2023-06-17T06:56:09.677Z,16.87
2023-06-17T06:58:39.397Z,16.96
2023-06-17T07:01:06.979Z,17.11
2023-06-17T07:03:35.024Z,17.20
2023-06-17T07:06:04.418Z,17.34
2023-06-17T07:08:32.328Z,17.37
2023-06-17T07:10:59.883Z,17.48
2023-06-17T07:13:28.003Z,17.57
2023-06-17T07:15:57.047Z,17.63
2023-06-17T07:18:24.870Z,17.51
2023-06-17T07:20:52.413Z,17.71
2023-06-17T07:23:21.850Z,17.90
2023-06-17T07:25:49.778Z,18.08
2023-06-17T07:28:18.094Z,18.16
2023-06-17T07:30:46.508Z,18.42
2023-06-17T07:33:14.067Z,18.49
2023-06-17T07:35:41.776Z,18.64
2023-06-17T07:38:09.353Z,18.72
2023-06-17T07:40:38.969Z,18.77
2023-06-17T07:43:06.639Z,18.90
2023-06-17T07:45:34.197Z,19.08
2023-06-17T07:48:02.021Z,19.18
2023-06-17T07:50:29.899Z,19.13
2023-06-17T07:52:58.223Z,19.44
2023-06-17T07:55:26.482Z,19.65
2023-06-17T07:57:56.629Z,19.79
2023-06-17T08:00:24.470Z,19.88
2023-06-17T08:02:52.232Z,20.01
2023-06-17T08:05:19.833Z,19.72
2023-06-17T08:07:47.368Z,19.63
2023-06-17T08:10:15.201Z,19.77
2023-06-17T08:12:43.647Z,20.08
2023-06-17T08:15:12.959Z,20.01
2023-06-17T08:17:41.773Z,20.11
2023-06-17T08:20:11.258Z,20.13
2023-06-17T08:22:38.999Z,20.22
2023-06-17T08:25:07.301Z,20.09
2023-06-17T08:27:34.893Z,19.85
2023-06-17T08:30:02.624Z,20.00
2023-06-17T08:32:31.655Z,20.23
2023-06-17T08:35:01.656Z,20.48
2023-06-17T08:37:29.151Z,20.73
2023-06-17T08:39:56.704Z,20.34
2023-06-17T08:42:24.271Z,20.18
2023-06-17T08:44:52.172Z,20.61
2023-06-17T08:47:19.997Z,20.94
2023-06-17T08:49:48.912Z,20.93
2023-06-17T08:52:16.873Z,21.23
2023-06-17T08:54:44.950Z,21.16
2023-06-17T08:57:14.287Z,21.09
2023-06-17T08:59:42.057Z,21.33
2023-06-17T09:02:11.594Z,21.50
2023-06-17T09:04:39.280Z,21.22
2023-06-17T09:07:10.335Z,21.26
2023-06-17T09:09:38.412Z,21.36
2023-06-17T09:12:07.254Z,21.83
2023-06-17T09:14:35.339Z,22.13
2023-06-17T09:17:04.118Z,22.10
2023-06-17T09:19:32.917Z,21.74
2023-06-17T09:22:08.174Z,22.30
2023-06-17T09:24:36.186Z,22.28
2023-06-17T09:27:04.236Z,21.88
2023-06-17T09:29:34.804Z,21.55
2023-06-17T09:32:05.094Z,21.48
2023-06-17T09:34:32.803Z,21.99
2023-06-17T09:37:02.384Z,22.27
2023-06-17T09:39:32.467Z,22.47
2023-06-17T09:42:08.559Z,22.86
2023-06-17T09:44:36.400Z,22.83
2023-06-17T09:47:09.213Z,23.01
2023-06-17T09:49:37.705Z,22.63
2023-06-17T09:52:09.381Z,22.65
2023-06-17T09:54:39.101Z,22.77
2023-06-17T09:57:08.589Z,22.47
2023-06-17T09:59:37.009Z,22.18
2023-06-17T10:02:04.978Z,22.48
2023-06-17T10:04:32.619Z,22.82
2023-06-17T10:07:01.535Z,23.31
2023-06-17T10:09:29.170Z,23.52
2023-06-17T10:11:59.730Z,23.08
2023-06-17T10:14:30.819Z,23.08
2023-06-17T10:16:58.900Z,23.55
2023-06-17T10:19:29.394Z,23.49
2023-06-17T10:21:57.974Z,23.20
2023-06-17T10:24:27.064Z,23.39
2023-06-17T10:26:55.056Z,23.12
2023-06-17T10:29:23.882Z,23.31
2023-06-17T10:31:52.162Z,23.61
2023-06-17T10:34:23.343Z,23.77
2023-06-17T10:36:52.471Z,23.75
2023-06-17T10:39:20.210Z,24.07
2023-06-17T10:41:57.194Z,23.71
2023-06-17T10:44:44.554Z,24.01
2023-06-17T10:47:21.897Z,24.42
2023-06-17T10:49:50.841Z,24.55
2023-06-17T10:52:18.834Z,24.49
2023-06-17T10:54:47.861Z,24.86
2023-06-17T10:57:16.136Z,24.45
2023-06-17T10:59:45.059Z,24.50
2023-06-17T11:02:13.065Z,24.17
2023-06-17T11:04:42.411Z,24.12
2023-06-17T11:07:10.249Z,24.10
2023-06-17T11:09:38.459Z,24.70
2023-06-17T11:12:07.287Z,24.78
2023-06-17T11:14:36.120Z,24.99
2023-06-17T11:17:05.358Z,25.10
2023-06-17T11:19:32.961Z,25.16
2023-06-17T11:22:04.515Z,25.21
2023-06-17T11:24:32.923Z,25.47
2023-06-17T11:27:01.069Z,25.77
2023-06-17T11:29:30.106Z,25.95
2023-06-17T11:32:00.109Z,26.25
2023-06-17T11:34:32.752Z,26.39
2023-06-17T11:37:01.592Z,26.50
2023-06-17T11:39:30.299Z,26.68
2023-06-17T11:42:02.204Z,26.77
2023-06-17T11:44:30.188Z,26.93
2023-06-17T11:46:58.251Z,27.04
2023-06-17T11:49:26.535Z,27.09
2023-06-17T11:51:55.446Z,26.79
2023-06-17T11:54:27.529Z,26.16
2023-06-17T11:56:55.974Z,26.19
2023-06-17T11:59:24.003Z,26.39
2023-06-17T12:01:53.086Z,26.38
2023-06-17T12:04:20.795Z,26.70
2023-06-17T12:06:48.955Z,26.71
2023-06-17T12:09:17.898Z,26.36
2023-06-17T12:11:45.945Z,26.71
2023-06-17T12:14:14.459Z,26.20
2023-06-17T12:16:44.181Z,26.19
2023-06-17T12:19:16.699Z,25.71
2023-06-17T12:21:44.300Z,26.14
2023-06-17T12:24:11.857Z,26.32
2023-06-17T12:26:40.739Z,26.39
2023-06-17T12:29:20.419Z,26.56
2023-06-17T12:31:52.698Z,26.36
2023-06-17T12:34:20.260Z,26.38
2023-06-17T12:36:48.388Z,26.70
2023-06-17T12:39:15.920Z,26.75
2023-06-17T12:41:45.142Z,26.86
2023-06-17T12:44:12.728Z,26.70
2023-06-17T12:46:42.202Z,26.17
2023-06-17T12:49:09.964Z,26.21
2023-06-17T12:51:37.550Z,26.67
2023-06-17T12:54:06.135Z,26.65
2023-06-17T12:56:33.853Z,26.67
2023-06-17T12:59:05.646Z,26.60
2023-06-17T13:01:33.220Z,26.06
2023-06-17T13:04:00.955Z,26.33
2023-06-17T13:06:28.520Z,26.37
2023-06-17T13:08:56.237Z,26.44
2023-06-17T13:11:23.769Z,25.51
2023-06-17T13:13:51.396Z,26.05
2023-06-17T13:16:20.393Z,26.49
2023-06-17T13:18:48.752Z,26.69
2023-06-17T13:21:16.380Z,26.76
2023-06-17T13:23:44.014Z,26.64
2023-06-17T13:26:11.856Z,26.22
2023-06-17T13:28:39.788Z,26.28
2023-06-17T13:31:07.864Z,26.46
2023-06-17T13:33:37.735Z,26.34
2023-06-17T13:36:05.418Z,25.78
2023-06-17T13:38:33.009Z,26.20
2023-06-17T13:41:00.576Z,26.38
2023-06-17T13:43:28.490Z,26.31
2023-06-17T13:45:56.120Z,26.09
2023-06-17T13:48:23.782Z,26.26
2023-06-17T13:50:52.631Z,26.47
2023-06-17T13:53:20.171Z,26.58
2023-06-17T13:55:47.772Z,26.67
2023-06-17T13:58:15.592Z,26.65
2023-06-17T14:00:43.137Z,26.36
2023-06-17T14:03:12.573Z,26.33
2023-06-17T14:05:42.462Z,26.45
2023-06-17T14:08:11.381Z,26.48
2023-06-17T14:10:39.004Z,26.61
2023-06-17T14:13:06.568Z,26.73
2023-06-17T14:15:34.186Z,26.76
2023-06-17T14:18:01.817Z,26.76
2023-06-17T14:20:29.393Z,26.73
2023-06-17T14:22:58.609Z,26.24
2023-06-17T14:25:27.824Z,26.26
2023-06-17T14:27:55.513Z,26.33
2023-06-17T14:30:23.429Z,26.03
2023-06-17T14:32:51.226Z,26.24
2023-06-17T14:35:20.340Z,26.48
2023-06-17T14:37:50.004Z,26.47
2023-06-17T14:40:18.534Z,26.44
2023-06-17T14:42:47.711Z,26.31
2023-06-17T14:45:17.052Z,26.42
2023-06-17T14:47:45.556Z,26.48
2023-06-17T14:50:13.384Z,26.46
2023-06-17T14:52:42.371Z,26.59
2023-06-17T14:55:10.557Z,26.54
2023-06-17T14:57:38.167Z,26.47
2023-06-17T15:00:09.167Z,26.66
2023-06-17T15:02:48.916Z,26.77
2023-06-17T15:05:18.089Z,26.81
2023-06-17T15:07:45.635Z,26.70
2023-06-17T15:10:13.231Z,26.43
2023-06-17T15:12:43.021Z,26.37
2023-06-17T15:15:13.287Z,26.31
2023-06-17T15:17:42.534Z,25.85
2023-06-17T15:20:11.526Z,26.00
2023-06-17T15:22:39.325Z,26.06
2023-06-17T15:25:08.071Z,26.24
2023-06-17T15:27:36.611Z,26.20
2023-06-17T15:30:04.843Z,26.23
2023-06-17T15:32:33.735Z,26.29
2023-06-17T15:35:01.332Z,26.31
2023-06-17T15:37:30.370Z,26.17
2023-06-17T15:39:58.000Z,25.98
2023-06-17T15:42:25.821Z,26.06
2023-06-17T15:44:53.358Z,26.31
2023-06-17T15:47:20.979Z,26.31
2023-06-17T15:49:50.488Z,26.22
2023-06-17T15:52:18.028Z,25.91
2023-06-17T15:54:45.560Z,25.79
2023-06-17T15:57:14.770Z,25.90
2023-06-17T15:59:42.551Z,25.99
2023-06-17T16:02:10.286Z,26.08
2023-06-17T16:04:38.233Z,25.97
2023-06-17T16:07:08.692Z,25.89
2023-06-17T16:09:38.031Z,25.87
2023-06-17T16:12:06.663Z,25.99
2023-06-17T16:14:36.269Z,25.98
2023-06-17T16:17:06.193Z,25.91
2023-06-17T16:19:34.133Z,25.84
2023-06-17T16:22:03.245Z,25.66
2023-06-17T16:24:32.609Z,25.51
2023-06-17T16:27:00.789Z,25.18
2023-06-17T16:29:28.387Z,25.10
2023-06-17T16:31:56.099Z,25.04
2023-06-17T16:34:23.775Z,24.96
2023-06-17T16:36:51.410Z,24.88
2023-06-17T16:39:18.948Z,24.77
2023-06-17T16:41:47.881Z,24.75
2023-06-17T16:44:15.708Z,24.79
2023-06-17T16:46:43.296Z,24.80
2023-06-17T16:49:10.864Z,24.77
2023-06-17T16:51:38.607Z,24.68
2023-06-17T16:54:06.741Z,24.53
2023-06-17T16:56:34.437Z,24.49
2023-06-17T16:59:03.900Z,24.41
2023-06-17T17:01:31.510Z,24.35
2023-06-17T17:04:00.904Z,24.25
2023-06-17T17:06:28.515Z,24.30
2023-06-17T17:08:56.093Z,24.26
2023-06-17T17:11:23.655Z,24.32
2023-06-17T17:13:51.673Z,24.33
2023-06-17T17:16:20.677Z,24.38
2023-06-17T17:18:48.401Z,24.35
2023-06-17T17:21:15.948Z,24.29
2023-06-17T17:23:43.476Z,24.29
2023-06-17T17:26:13.194Z,24.27
2023-06-17T17:28:40.931Z,24.25
2023-06-17T17:31:08.515Z,24.27
2023-06-17T17:33:37.444Z,24.22
2023-06-17T17:36:05.375Z,24.11
2023-06-17T17:38:33.120Z,23.99
2023-06-17T17:41:00.723Z,23.99
2023-06-17T17:43:30.668Z,23.98
2023-06-17T17:45:59.019Z,24.00
2023-06-17T17:48:26.631Z,23.98
2023-06-17T17:50:55.537Z,23.95
2023-06-17T17:53:23.203Z,23.93
2023-06-17T17:55:50.872Z,23.91
2023-06-17T17:58:18.701Z,23.88
2023-06-17T18:00:46.519Z,23.84
2023-06-17T18:03:15.590Z,23.81
2023-06-17T18:05:43.333Z,23.77
2023-06-17T18:08:12.210Z,23.71
2023-06-17T18:10:39.775Z,23.53
2023-06-17T18:13:07.331Z,23.49
2023-06-17T18:15:34.820Z,23.50
2023-06-17T18:18:02.376Z,23.47
2023-06-17T18:20:29.942Z,23.48
2023-06-17T18:22:57.530Z,23.47
2023-06-17T18:25:26.444Z,23.39
2023-06-17T18:27:54.029Z,23.34
2023-06-17T18:30:21.843Z,23.31
2023-06-17T18:32:49.684Z,23.28
2023-06-17T18:35:17.550Z,23.26
2023-06-17T18:37:45.114Z,23.15
2023-06-17T18:40:13.750Z,23.08
2023-06-17T18:42:42.609Z,23.08
2023-06-17T18:45:10.851Z,23.02
2023-06-17T18:47:38.497Z,23.01
2023-06-17T18:50:07.328Z,22.99
2023-06-17T18:52:34.941Z,22.82
2023-06-17T18:55:02.487Z,22.87
2023-06-17T18:57:30.619Z,22.87
2023-06-17T18:59:59.506Z,22.89
2023-06-17T19:02:28.016Z,22.86
2023-06-17T19:04:56.883Z,22.84
2023-06-17T19:07:25.459Z,22.78
2023-06-17T19:09:53.116Z,22.73
2023-06-17T19:12:20.808Z,22.67
2023-06-17T19:14:48.354Z,22.61
2023-06-17T19:17:17.437Z,22.62
2023-06-17T19:19:45.027Z,22.59
2023-06-17T19:22:13.574Z,22.48
2023-06-17T19:24:41.172Z,22.24
2023-06-17T19:27:08.764Z,22.27
2023-06-17T19:29:36.597Z,22.12
2023-06-17T19:32:04.397Z,21.87
2023-06-17T19:34:33.292Z,21.90
2023-06-17T19:37:00.894Z,21.86
2023-06-17T19:39:28.447Z,21.83
2023-06-17T19:41:56.092Z,21.74
2023-06-17T19:44:23.624Z,21.75
2023-06-17T19:46:51.181Z,21.93
2023-06-17T19:49:18.711Z,21.97
2023-06-17T19:51:48.779Z,21.95
2023-06-17T19:54:16.503Z,21.62
2023-06-17T19:56:44.202Z,21.38
2023-06-17T19:59:11.750Z,21.30
2023-06-17T20:01:39.696Z,21.40
2023-06-17T20:04:07.326Z,21.34
2023-06-17T20:06:34.880Z,21.16
2023-06-17T20:09:03.781Z,21.17
2023-06-17T20:11:31.384Z,20.98
2023-06-17T20:13:59.013Z,20.88
2023-06-17T20:16:27.082Z,20.51
2023-06-17T20:18:54.866Z,20.45
2023-06-17T20:21:22.598Z,20.30
2023-06-17T20:23:50.121Z,20.33
2023-06-17T20:26:19.033Z,20.48
2023-06-17T20:28:46.579Z,20.60
2023-06-17T20:31:14.433Z,20.32
2023-06-17T20:33:42.044Z,20.09
2023-06-17T20:36:09.582Z,20.22
2023-06-17T20:38:37.088Z,20.20
2023-06-17T20:41:04.658Z,19.92
2023-06-17T20:43:34.351Z,19.39
2023-06-17T20:46:02.737Z,19.55
2023-06-17T20:48:31.293Z,19.59
2023-06-17T20:50:58.805Z,19.19
2023-06-17T20:53:26.509Z,19.03
2023-06-17T20:55:54.032Z,19.18
2023-06-17T20:58:21.560Z,19.12
2023-06-17T21:00:50.526Z,19.26
2023-06-17T21:03:18.191Z,19.27
2023-06-17T21:05:45.734Z,19.21
2023-06-17T21:08:13.338Z,19.18
2023-06-17T21:10:41.091Z,19.23
2023-06-17T21:13:08.703Z,19.23
2023-06-17T21:15:36.469Z,19.13
2023-06-17T21:18:05.454Z,19.12
2023-06-17T21:20:33.249Z,18.94
2023-06-17T21:23:01.558Z,18.85
2023-06-17T21:25:29.129Z,18.79
2023-06-17T21:27:56.710Z,18.70
2023-06-17T21:30:24.459Z,18.68
2023-06-17T21:32:52.258Z,18.69
2023-06-17T21:35:21.153Z,18.79
2023-06-17T21:37:48.798Z,18.79
2023-06-17T21:40:16.371Z,18.72
2023-06-17T21:42:43.922Z,18.77
2023-06-17T21:45:11.822Z,18.43
2023-06-17T21:47:39.431Z,18.48
2023-06-17T21:50:09.370Z,18.33
2023-06-17T21:52:38.315Z,18.62
2023-06-17T21:55:06.898Z,18.50
2023-06-17T21:57:34.543Z,18.37
2023-06-17T22:00:02.062Z,18.45
2023-06-17T22:02:39.996Z,18.38
2023-06-17T22:05:07.851Z,18.27
2023-06-17T22:07:35.483Z,18.17
2023-06-17T22:10:04.766Z,18.29
2023-06-17T22:12:32.438Z,18.33
2023-06-17T22:15:01.988Z,18.23
2023-06-17T22:17:31.452Z,17.90
2023-06-17T22:19:59.039Z,18.04
2023-06-17T22:22:26.585Z,17.98
2023-06-17T22:24:54.156Z,17.94
2023-06-17T22:27:23.045Z,17.75
2023-06-17T22:29:50.622Z,17.66
2023-06-17T22:32:18.157Z,17.52
2023-06-17T22:34:45.813Z,17.73
2023-06-17T22:37:13.346Z,17.71
2023-06-17T22:39:40.953Z,17.66
2023-06-17T22:42:08.856Z,17.51
2023-06-17T22:44:37.724Z,17.29
2023-06-17T22:47:06.050Z,17.13
2023-06-17T22:49:33.702Z,17.67
2023-06-17T22:52:01.258Z,17.71
2023-06-17T22:54:28.820Z,17.63
2023-06-17T22:56:56.525Z,17.79
2023-06-17T22:59:24.416Z,17.78
2023-06-17T23:01:53.319Z,17.53
2023-06-17T23:04:20.863Z,17.45
2023-06-17T23:06:48.375Z,17.36
2023-06-17T23:09:16.470Z,17.14
2023-06-17T23:11:44.055Z,17.19
2023-06-17T23:14:11.637Z,17.10
2023-06-17T23:16:39.227Z,16.81
2023-06-17T23:19:08.097Z,16.55
2023-06-17T23:21:37.936Z,16.69
2023-06-17T23:24:06.123Z,16.50
2023-06-17T23:26:34.931Z,15.98
2023-06-17T23:29:02.838Z,16.18
2023-06-17T23:31:30.572Z,16.48
2023-06-17T23:33:58.099Z,16.53
2023-06-17T23:36:27.153Z,16.34
2023-06-17T23:38:55.153Z,16.35
2023-06-17T23:41:22.706Z,16.19
2023-06-17T23:43:50.397Z,16.36
2023-06-17T23:46:18.772Z,16.12
2023-06-17T23:48:46.371Z,15.97
2023-06-17T23:51:14.005Z,15.48
2023-06-17T23:53:42.880Z,15.56
2023-06-17T23:56:10.397Z,15.73
2023-06-17T23:58:37.972Z,15.95
